sensor_id;sensor_type;location;lat;lon;timestamp;temperature;humidity
20057;DHT22;10189;49.546;7.906;2023-03-09T00:01:44;7.60;99.90
20057;DHT22;10189;49.546;7.906;2023-03-09T00:04:15;7.60;99.90
20057;DHT22;10189;49.546;7.906;2023-03-09T00:06:43;7.60;99.90
20057;DHT22;10189;49.546;7.906;2023-03-09T00:09:10;7.60;99.90
20057;DHT22;10189;49.546;7.906;2023-03-09T00:11:40;7.60;99.90
20057;DHT22;10189;49.546;7.906;2023-03-09T00:14:07;7.70;99.90
20057;DHT22;10189;49.546;7.906;2023-03-09T00:16:36;7.70;99.90
20057;DHT22;10189;49.546;7.906;2023-03-09T00:19:03;7.70;99.90
20057;DHT22;10189;49.546;7.906;2023-03-09T00:21:29;7.70;99.90
20057;DHT22;10189;49.546;7.906;2023-03-09T00:24:09;7.70;99.90
20057;DHT22;10189;49.546;7.906;2023-03-09T00:26:40;7.70;99.90
20057;DHT22;10189;49.546;7.906;2023-03-09T00:29:09;7.70;99.90
20057;DHT22;10189;49.546;7.906;2023-03-09T00:31:37;7.70;99.90
20057;DHT22;10189;49.546;7.906;2023-03-09T00:34:04;7.60;99.90
20057;DHT22;10189;49.546;7.906;2023-03-09T00:36:31;7.60;99.90
20057;DHT22;10189;49.546;7.906;2023-03-09T00:38:58;7.60;99.90
20057;DHT22;10189;49.546;7.906;2023-03-09T00:41:25;7.60;99.90
20057;DHT22;10189;49.546;7.906;2023-03-09T00:43:53;7.60;99.90
20057;DHT22;10189;49.546;7.906;2023-03-09T00:46:19;7.60;99.90
20057;DHT22;10189;49.546;7.906;2023-03-09T00:48:45;7.50;99.90
20057;DHT22;10189;49.546;7.906;2023-03-09T00:51:12;7.50;99.90
20057;DHT22;10189;49.546;7.906;2023-03-09T00:53:39;7.40;99.90
20057;DHT22;10189;49.546;7.906;2023-03-09T00:56:18;7.40;99.90
20057;DHT22;10189;49.546;7.906;2023-03-09T00:58:46;7.40;99.90
20057;DHT22;10189;49.546;7.906;2023-03-09T01:01:14;7.40;99.90
20057;DHT22;10189;49.546;7.906;2023-03-09T01:03:41;7.40;99.90
20057;DHT22;10189;49.546;7.906;2023-03-09T01:06:08;7.40;99.90
20057;DHT22;10189;49.546;7.906;2023-03-09T01:08:34;7.40;99.90
20057;DHT22;10189;49.546;7.906;2023-03-09T01:11:04;7.40;99.90
20057;DHT22;10189;49.546;7.906;2023-03-09T01:13:31;7.40;99.90
20057;DHT22;10189;49.546;7.906;2023-03-09T01:15:58;7.40;99.90
20057;DHT22;10189;49.546;7.906;2023-03-09T01:18:24;7.40;99.90
20057;DHT22;10189;49.546;7.906;2023-03-09T01:20:50;7.40;99.90
20057;DHT22;10189;49.546;7.906;2023-03-09T01:23:17;7.50;99.90
20057;DHT22;10189;49.546;7.906;2023-03-09T01:25:43;7.50;99.90
20057;DHT22;10189;49.546;7.906;2023-03-09T01:28:10;7.50;99.90
20057;DHT22;10189;49.546;7.906;2023-03-09T01:30:37;7.60;99.90
20057;DHT22;10189;49.546;7.906;2023-03-09T01:33:04;7.60;99.90
20057;DHT22;10189;49.546;7.906;2023-03-09T01:35:30;7.50;99.90
20057;DHT22;10189;49.546;7.906;2023-03-09T01:37:59;7.50;99.90
20057;DHT22;10189;49.546;7.906;2023-03-09T01:40:27;7.60;99.90
20057;DHT22;10189;49.546;7.906;2023-03-09T01:42:58;7.60;99.90
20057;DHT22;10189;49.546;7.906;2023-03-09T01:47:53;7.60;99.90
20057;DHT22;10189;49.546;7.906;2023-03-09T01:50:30;7.60;99.90
20057;DHT22;10189;49.546;7.906;2023-03-09T01:53:07;7.60;99.90
20057;DHT22;10189;49.546;7.906;2023-03-09T01:55:44;7.60;99.90
20057;DHT22;10189;49.546;7.906;2023-03-09T01:58:26;7.60;99.90
20057;DHT22;10189;49.546;7.906;2023-03-09T02:00:55;7.60;99.90
20057;DHT22;10189;49.546;7.906;2023-03-09T02:03:27;7.60;99.90
20057;DHT22;10189;49.546;7.906;2023-03-09T02:06:09;7.50;99.90
20057;DHT22;10189;49.546;7.906;2023-03-09T02:08:50;7.60;99.90
20057;DHT22;10189;49.546;7.906;2023-03-09T02:11:24;7.50;99.90
20057;DHT22;10189;49.546;7.906;2023-03-09T02:13:51;7.50;99.90
20057;DHT22;10189;49.546;7.906;2023-03-09T02:16:19;7.50;99.90
20057;DHT22;10189;49.546;7.906;2023-03-09T02:18:46;7.50;99.90
20057;DHT22;10189;49.546;7.906;2023-03-09T02:27:26;7.40;99.90
20057;DHT22;10189;49.546;7.906;2023-03-09T02:29:55;7.40;99.90
20057;DHT22;10189;49.546;7.906;2023-03-09T02:32:25;7.40;99.90
20057;DHT22;10189;49.546;7.906;2023-03-09T02:34:51;7.40;99.90
20057;DHT22;10189;49.546;7.906;2023-03-09T02:37:30;7.30;99.90
20057;DHT22;10189;49.546;7.906;2023-03-09T02:40:11;7.30;99.90
20057;DHT22;10189;49.546;7.906;2023-03-09T02:42:45;7.20;99.90
20057;DHT22;10189;49.546;7.906;2023-03-09T02:45:16;7.30;99.90
20057;DHT22;10189;49.546;7.906;2023-03-09T02:47:45;7.20;99.90
20057;DHT22;10189;49.546;7.906;2023-03-09T02:50:13;7.20;99.90
20057;DHT22;10189;49.546;7.906;2023-03-09T02:52:40;7.10;99.90
20057;DHT22;10189;49.546;7.906;2023-03-09T02:55:07;7.10;99.90
20057;DHT22;10189;49.546;7.906;2023-03-09T02:57:34;7.10;99.90
20057;DHT22;10189;49.546;7.906;2023-03-09T03:00:01;7.10;99.90
20057;DHT22;10189;49.546;7.906;2023-03-09T03:02:29;7.10;99.90
20057;DHT22;10189;49.546;7.906;2023-03-09T03:04:57;7.10;99.90
20057;DHT22;10189;49.546;7.906;2023-03-09T03:07:24;7.10;99.90
20057;DHT22;10189;49.546;7.906;2023-03-09T03:09:50;7.10;99.90
20057;DHT22;10189;49.546;7.906;2023-03-09T03:12:17;7.10;99.90
20057;DHT22;10189;49.546;7.906;2023-03-09T03:14:44;7.10;99.90
20057;DHT22;10189;49.546;7.906;2023-03-09T03:17:11;7.00;99.90
20057;DHT22;10189;49.546;7.906;2023-03-09T03:19:37;7.00;99.90
20057;DHT22;10189;49.546;7.906;2023-03-09T03:22:05;7.00;99.90
20057;DHT22;10189;49.546;7.906;2023-03-09T03:24:37;7.00;99.90
20057;DHT22;10189;49.546;7.906;2023-03-09T03:27:05;7.00;99.90
20057;DHT22;10189;49.546;7.906;2023-03-09T03:29:32;7.00;99.90
20057;DHT22;10189;49.546;7.906;2023-03-09T03:31:59;7.00;99.90
20057;DHT22;10189;49.546;7.906;2023-03-09T03:34:26;7.00;99.90
20057;DHT22;10189;49.546;7.906;2023-03-09T03:36:52;7.00;99.90
20057;DHT22;10189;49.546;7.906;2023-03-09T03:39:19;7.00;99.90
20057;DHT22;10189;49.546;7.906;2023-03-09T03:41:47;6.90;99.90
20057;DHT22;10189;49.546;7.906;2023-03-09T03:44:15;6.90;99.90
20057;DHT22;10189;49.546;7.906;2023-03-09T03:46:43;6.90;99.90
20057;DHT22;10189;49.546;7.906;2023-03-09T03:49:09;6.90;99.90
20057;DHT22;10189;49.546;7.906;2023-03-09T03:51:37;6.90;99.90
20057;DHT22;10189;49.546;7.906;2023-03-09T03:54:04;6.90;99.90
20057;DHT22;10189;49.546;7.906;2023-03-09T03:56:30;6.90;99.90
20057;DHT22;10189;49.546;7.906;2023-03-09T03:59:00;7.00;99.90
20057;DHT22;10189;49.546;7.906;2023-03-09T04:01:26;6.90;99.90
20057;DHT22;10189;49.546;7.906;2023-03-09T04:03:57;7.00;99.90
20057;DHT22;10189;49.546;7.906;2023-03-09T04:06:24;7.00;99.90
20057;DHT22;10189;49.546;7.906;2023-03-09T04:08:50;7.10;99.90
20057;DHT22;10189;49.546;7.906;2023-03-09T04:11:17;7.10;99.90
20057;DHT22;10189;49.546;7.906;2023-03-09T04:13:49;7.10;99.90
20057;DHT22;10189;49.546;7.906;2023-03-09T04:16:17;7.10;99.90
20057;DHT22;10189;49.546;7.906;2023-03-09T04:18:45;7.10;99.90
20057;DHT22;10189;49.546;7.906;2023-03-09T04:21:12;7.10;99.90
20057;DHT22;10189;49.546;7.906;2023-03-09T04:23:38;7.10;99.90
20057;DHT22;10189;49.546;7.906;2023-03-09T04:26:05;7.20;99.90
20057;DHT22;10189;49.546;7.906;2023-03-09T04:28:41;7.10;99.90
20057;DHT22;10189;49.546;7.906;2023-03-09T04:31:12;7.10;99.90
20057;DHT22;10189;49.546;7.906;2023-03-09T04:33:39;7.00;99.90
20057;DHT22;10189;49.546;7.906;2023-03-09T04:36:10;6.90;99.90
20057;DHT22;10189;49.546;7.906;2023-03-09T04:38:37;6.90;99.90
20057;DHT22;10189;49.546;7.906;2023-03-09T04:41:03;6.80;99.90
20057;DHT22;10189;49.546;7.906;2023-03-09T04:43:30;6.70;99.90
20057;DHT22;10189;49.546;7.906;2023-03-09T04:45:56;6.80;99.90
20057;DHT22;10189;49.546;7.906;2023-03-09T04:48:22;6.70;99.90
20057;DHT22;10189;49.546;7.906;2023-03-09T04:50:48;6.70;99.90
20057;DHT22;10189;49.546;7.906;2023-03-09T04:53:14;6.80;99.90
20057;DHT22;10189;49.546;7.906;2023-03-09T04:55:40;6.80;99.90
20057;DHT22;10189;49.546;7.906;2023-03-09T04:58:10;6.80;99.90
20057;DHT22;10189;49.546;7.906;2023-03-09T05:00:37;6.80;99.90
20057;DHT22;10189;49.546;7.906;2023-03-09T05:03:05;6.80;99.90
20057;DHT22;10189;49.546;7.906;2023-03-09T05:05:32;6.80;99.90
20057;DHT22;10189;49.546;7.906;2023-03-09T05:08:00;6.80;99.90
20057;DHT22;10189;49.546;7.906;2023-03-09T05:10:28;6.80;99.90
20057;DHT22;10189;49.546;7.906;2023-03-09T05:12:57;6.70;99.90
20057;DHT22;10189;49.546;7.906;2023-03-09T05:15:26;6.70;99.90
20057;DHT22;10189;49.546;7.906;2023-03-09T05:17:53;6.70;99.90
20057;DHT22;10189;49.546;7.906;2023-03-09T05:20:20;6.80;99.90
20057;DHT22;10189;49.546;7.906;2023-03-09T05:22:53;6.70;99.90
20057;DHT22;10189;49.546;7.906;2023-03-09T05:25:20;6.80;99.90
20057;DHT22;10189;49.546;7.906;2023-03-09T05:27:49;6.80;99.90
20057;DHT22;10189;49.546;7.906;2023-03-09T05:30:16;6.90;99.90
20057;DHT22;10189;49.546;7.906;2023-03-09T05:32:44;6.90;99.90
20057;DHT22;10189;49.546;7.906;2023-03-09T05:35:11;6.90;99.90
20057;DHT22;10189;49.546;7.906;2023-03-09T05:37:38;7.00;99.90
20057;DHT22;10189;49.546;7.906;2023-03-09T05:40:13;7.00;99.90
20057;DHT22;10189;49.546;7.906;2023-03-09T05:42:43;7.00;99.90
20057;DHT22;10189;49.546;7.906;2023-03-09T05:45:10;7.00;99.90
20057;DHT22;10189;49.546;7.906;2023-03-09T05:47:36;7.00;99.90
20057;DHT22;10189;49.546;7.906;2023-03-09T05:50:05;7.00;99.90
20057;DHT22;10189;49.546;7.906;2023-03-09T05:52:32;7.00;99.90
20057;DHT22;10189;49.546;7.906;2023-03-09T05:54:58;7.00;99.90
20057;DHT22;10189;49.546;7.906;2023-03-09T05:57:25;7.00;99.90
20057;DHT22;10189;49.546;7.906;2023-03-09T05:59:56;7.00;99.90
20057;DHT22;10189;49.546;7.906;2023-03-09T06:02:28;7.00;99.90
20057;DHT22;10189;49.546;7.906;2023-03-09T06:04:54;7.00;99.90
20057;DHT22;10189;49.546;7.906;2023-03-09T06:07:21;7.00;99.90
20057;DHT22;10189;49.546;7.906;2023-03-09T06:09:49;7.00;99.90
20057;DHT22;10189;49.546;7.906;2023-03-09T06:12:21;7.00;99.90
20057;DHT22;10189;49.546;7.906;2023-03-09T06:14:50;7.10;99.90
20057;DHT22;10189;49.546;7.906;2023-03-09T06:17:19;7.10;99.90
20057;DHT22;10189;49.546;7.906;2023-03-09T06:19:46;7.10;99.90
20057;DHT22;10189;49.546;7.906;2023-03-09T06:22:14;7.10;99.90
20057;DHT22;10189;49.546;7.906;2023-03-09T06:24:40;7.20;99.90
20057;DHT22;10189;49.546;7.906;2023-03-09T06:27:09;7.10;99.90
20057;DHT22;10189;49.546;7.906;2023-03-09T06:29:37;7.10;99.90
20057;DHT22;10189;49.546;7.906;2023-03-09T06:32:05;7.20;99.90
20057;DHT22;10189;49.546;7.906;2023-03-09T06:34:34;7.20;99.90
20057;DHT22;10189;49.546;7.906;2023-03-09T06:37:05;7.20;99.90
20057;DHT22;10189;49.546;7.906;2023-03-09T06:39:32;7.20;99.90
20057;DHT22;10189;49.546;7.906;2023-03-09T06:41:59;7.20;99.90
20057;DHT22;10189;49.546;7.906;2023-03-09T06:44:32;7.20;99.90
20057;DHT22;10189;49.546;7.906;2023-03-09T06:47:00;7.30;99.90
20057;DHT22;10189;49.546;7.906;2023-03-09T06:49:28;7.30;99.90
20057;DHT22;10189;49.546;7.906;2023-03-09T06:51:57;7.20;99.90
20057;DHT22;10189;49.546;7.906;2023-03-09T06:54:24;7.20;99.90
20057;DHT22;10189;49.546;7.906;2023-03-09T06:56:57;7.20;99.90
20057;DHT22;10189;49.546;7.906;2023-03-09T06:59:24;7.20;99.90
20057;DHT22;10189;49.546;7.906;2023-03-09T07:01:54;7.20;99.90
20057;DHT22;10189;49.546;7.906;2023-03-09T07:04:24;7.20;99.90
20057;DHT22;10189;49.546;7.906;2023-03-09T07:06:50;7.30;99.90
20057;DHT22;10189;49.546;7.906;2023-03-09T07:09:16;7.30;99.90
20057;DHT22;10189;49.546;7.906;2023-03-09T07:11:43;7.30;99.90
20057;DHT22;10189;49.546;7.906;2023-03-09T07:14:09;7.30;99.90
20057;DHT22;10189;49.546;7.906;2023-03-09T07:16:35;7.30;99.90
20057;DHT22;10189;49.546;7.906;2023-03-09T07:19:02;7.30;99.90
20057;DHT22;10189;49.546;7.906;2023-03-09T07:21:28;7.30;99.90
20057;DHT22;10189;49.546;7.906;2023-03-09T07:23:54;7.30;99.90
20057;DHT22;10189;49.546;7.906;2023-03-09T07:26:20;7.40;99.90
20057;DHT22;10189;49.546;7.906;2023-03-09T07:28:47;7.30;99.90
20057;DHT22;10189;49.546;7.906;2023-03-09T07:31:13;7.30;99.90
20057;DHT22;10189;49.546;7.906;2023-03-09T07:33:40;7.30;99.90
20057;DHT22;10189;49.546;7.906;2023-03-09T07:36:07;7.30;99.90
20057;DHT22;10189;49.546;7.906;2023-03-09T07:38:35;7.30;99.90
20057;DHT22;10189;49.546;7.906;2023-03-09T07:41:01;7.40;99.90
20057;DHT22;10189;49.546;7.906;2023-03-09T07:43:28;7.40;99.90
20057;DHT22;10189;49.546;7.906;2023-03-09T07:46:07;7.40;99.90
20057;DHT22;10189;49.546;7.906;2023-03-09T07:48:33;7.40;99.90
20057;DHT22;10189;49.546;7.906;2023-03-09T07:51:02;7.40;99.90
20057;DHT22;10189;49.546;7.906;2023-03-09T07:53:33;7.50;99.90
20057;DHT22;10189;49.546;7.906;2023-03-09T07:56:01;7.60;99.90
20057;DHT22;10189;49.546;7.906;2023-03-09T07:58:30;7.70;99.90
20057;DHT22;10189;49.546;7.906;2023-03-09T08:00:57;7.70;99.90
20057;DHT22;10189;49.546;7.906;2023-03-09T08:03:24;7.80;99.90
20057;DHT22;10189;49.546;7.906;2023-03-09T08:05:51;7.80;99.90
20057;DHT22;10189;49.546;7.906;2023-03-09T08:08:24;7.70;99.90
20057;DHT22;10189;49.546;7.906;2023-03-09T08:10:54;7.80;99.90
20057;DHT22;10189;49.546;7.906;2023-03-09T08:13:21;7.90;99.90
20057;DHT22;10189;49.546;7.906;2023-03-09T08:15:48;7.90;99.90
20057;DHT22;10189;49.546;7.906;2023-03-09T08:18:15;7.90;99.90
20057;DHT22;10189;49.546;7.906;2023-03-09T08:20:46;8.00;99.90
20057;DHT22;10189;49.546;7.906;2023-03-09T08:23:13;8.00;99.90
20057;DHT22;10189;49.546;7.906;2023-03-09T08:25:40;8.10;99.90
20057;DHT22;10189;49.546;7.906;2023-03-09T08:28:06;8.00;99.90
20057;DHT22;10189;49.546;7.906;2023-03-09T08:30:32;8.00;99.90
20057;DHT22;10189;49.546;7.906;2023-03-09T08:32:58;8.10;99.90
20057;DHT22;10189;49.546;7.906;2023-03-09T08:35:29;8.20;99.90
20057;DHT22;10189;49.546;7.906;2023-03-09T08:37:59;8.20;99.90
20057;DHT22;10189;49.546;7.906;2023-03-09T08:40:26;8.30;99.90
20057;DHT22;10189;49.546;7.906;2023-03-09T08:42:52;8.30;99.90
20057;DHT22;10189;49.546;7.906;2023-03-09T08:45:19;8.30;99.90
20057;DHT22;10189;49.546;7.906;2023-03-09T08:47:45;8.30;99.90
20057;DHT22;10189;49.546;7.906;2023-03-09T08:50:11;8.30;99.90
20057;DHT22;10189;49.546;7.906;2023-03-09T08:52:39;8.40;99.90
20057;DHT22;10189;49.546;7.906;2023-03-09T08:55:08;8.40;99.90
20057;DHT22;10189;49.546;7.906;2023-03-09T08:57:35;8.40;99.90
20057;DHT22;10189;49.546;7.906;2023-03-09T09:00:02;8.40;99.90
20057;DHT22;10189;49.546;7.906;2023-03-09T09:02:30;8.50;99.90
20057;DHT22;10189;49.546;7.906;2023-03-09T09:04:56;8.50;99.90
20057;DHT22;10189;49.546;7.906;2023-03-09T09:07:22;8.60;99.90
20057;DHT22;10189;49.546;7.906;2023-03-09T09:09:49;8.60;99.90
20057;DHT22;10189;49.546;7.906;2023-03-09T09:12:15;8.60;99.90
20057;DHT22;10189;49.546;7.906;2023-03-09T09:14:41;8.60;99.90
20057;DHT22;10189;49.546;7.906;2023-03-09T09:17:08;8.60;99.90
20057;DHT22;10189;49.546;7.906;2023-03-09T09:19:38;8.60;99.90
20057;DHT22;10189;49.546;7.906;2023-03-09T09:22:06;8.70;99.90
20057;DHT22;10189;49.546;7.906;2023-03-09T09:24:33;8.70;99.90
20057;DHT22;10189;49.546;7.906;2023-03-09T09:27:06;8.80;99.90
20057;DHT22;10189;49.546;7.906;2023-03-09T09:29:34;8.90;99.90
20057;DHT22;10189;49.546;7.906;2023-03-09T09:32:02;9.00;99.90
20057;DHT22;10189;49.546;7.906;2023-03-09T09:34:31;9.00;99.90
20057;DHT22;10189;49.546;7.906;2023-03-09T09:37:00;9.00;99.20
20057;DHT22;10189;49.546;7.906;2023-03-09T09:39:27;9.00;99.20
20057;DHT22;10189;49.546;7.906;2023-03-09T09:42:00;9.00;99.90
20057;DHT22;10189;49.546;7.906;2023-03-09T09:44:35;9.00;99.90
20057;DHT22;10189;49.546;7.906;2023-03-09T09:47:22;9.10;99.80
20057;DHT22;10189;49.546;7.906;2023-03-09T09:49:53;9.20;99.90
20057;DHT22;10189;49.546;7.906;2023-03-09T10:01:06;9.10;99.90
20057;DHT22;10189;49.546;7.906;2023-03-09T10:03:51;9.20;99.90
20057;DHT22;10189;49.546;7.906;2023-03-09T10:06:24;9.30;99.90
20057;DHT22;10189;49.546;7.906;2023-03-09T10:09:08;9.40;99.90
20057;DHT22;10189;49.546;7.906;2023-03-09T10:11:46;9.40;99.90
20057;DHT22;10189;49.546;7.906;2023-03-09T10:14:34;9.50;99.90
20057;DHT22;10189;49.546;7.906;2023-03-09T10:17:09;9.50;99.90
20057;DHT22;10189;49.546;7.906;2023-03-09T10:20:03;9.50;99.90
20057;DHT22;10189;49.546;7.906;2023-03-09T10:22:49;9.60;99.90
20057;DHT22;10189;49.546;7.906;2023-03-09T10:25:20;9.40;99.90
20057;DHT22;10189;49.546;7.906;2023-03-09T10:28:04;9.30;99.90
20057;DHT22;10189;49.546;7.906;2023-03-09T10:34:05;9.10;99.90
20057;DHT22;10189;49.546;7.906;2023-03-09T10:39:25;9.10;99.90
20057;DHT22;10189;49.546;7.906;2023-03-09T10:41:56;9.20;99.90
20057;DHT22;10189;49.546;7.906;2023-03-09T10:44:26;9.30;99.90
20057;DHT22;10189;49.546;7.906;2023-03-09T10:46:58;9.50;99.90
20057;DHT22;10189;49.546;7.906;2023-03-09T10:49:27;9.70;99.90
20057;DHT22;10189;49.546;7.906;2023-03-09T10:52:03;9.80;99.90
20057;DHT22;10189;49.546;7.906;2023-03-09T10:54:36;9.80;99.20
20057;DHT22;10189;49.546;7.906;2023-03-09T10:57:24;9.80;97.80
20057;DHT22;10189;49.546;7.906;2023-03-09T10:59:56;9.80;97.20
20057;DHT22;10189;49.546;7.906;2023-03-09T11:02:35;9.80;96.70
20057;DHT22;10189;49.546;7.906;2023-03-09T11:05:19;9.90;97.00
20057;DHT22;10189;49.546;7.906;2023-03-09T11:07:51;10.10;95.70
20057;DHT22;10189;49.546;7.906;2023-03-09T11:10:27;10.10;94.60
20057;DHT22;10189;49.546;7.906;2023-03-09T11:12:56;10.10;95.10
20057;DHT22;10189;49.546;7.906;2023-03-09T11:15:30;10.00;96.40
20057;DHT22;10189;49.546;7.906;2023-03-09T11:17:57;10.00;95.70
20057;DHT22;10189;49.546;7.906;2023-03-09T11:20:26;10.00;95.60
20057;DHT22;10189;49.546;7.906;2023-03-09T11:31:33;10.00;93.70
20057;DHT22;10189;49.546;7.906;2023-03-09T11:34:17;10.10;93.20
20057;DHT22;10189;49.546;7.906;2023-03-09T11:36:58;10.00;93.20
20057;DHT22;10189;49.546;7.906;2023-03-09T11:39:48;10.00;94.10
20057;DHT22;10189;49.546;7.906;2023-03-09T11:45:25;9.90;93.40
20057;DHT22;10189;49.546;7.906;2023-03-09T11:53:35;9.90;97.70
20057;DHT22;10189;49.546;7.906;2023-03-09T11:59:13;10.10;96.90
20057;DHT22;10189;49.546;7.906;2023-03-09T12:04:49;10.50;95.70
20057;DHT22;10189;49.546;7.906;2023-03-09T12:07:28;10.80;93.20
20057;DHT22;10189;49.546;7.906;2023-03-09T12:12:58;11.10;93.30
20057;DHT22;10189;49.546;7.906;2023-03-09T12:15:40;11.20;89.30
20057;DHT22;10189;49.546;7.906;2023-03-09T12:18:46;11.30;91.20
20057;DHT22;10189;49.546;7.906;2023-03-09T12:21:40;11.30;88.90
20057;DHT22;10189;49.546;7.906;2023-03-09T12:24:43;11.50;90.00
20057;DHT22;10189;49.546;7.906;2023-03-09T12:27:12;11.40;90.10
20057;DHT22;10189;49.546;7.906;2023-03-09T12:29:47;11.50;89.00
20057;DHT22;10189;49.546;7.906;2023-03-09T12:34:57;11.30;88.60
20057;DHT22;10189;49.546;7.906;2023-03-09T12:42:41;11.40;88.70
20057;DHT22;10189;49.546;7.906;2023-03-09T13:00:59;12.30;86.90
20057;DHT22;10189;49.546;7.906;2023-03-09T13:06:36;12.60;86.30
20057;DHT22;10189;49.546;7.906;2023-03-09T13:16:52;12.30;81.80
20057;DHT22;10189;49.546;7.906;2023-03-09T13:24:39;12.10;84.60
20057;DHT22;10189;49.546;7.906;2023-03-09T13:29:46;12.20;85.80
20057;DHT22;10189;49.546;7.906;2023-03-09T13:32:35;12.50;84.60
20057;DHT22;10189;49.546;7.906;2023-03-09T13:37:58;12.50;82.90
20057;DHT22;10189;49.546;7.906;2023-03-09T13:42:58;12.50;81.70
20057;DHT22;10189;49.546;7.906;2023-03-09T13:45:31;12.40;81.80
20057;DHT22;10189;49.546;7.906;2023-03-09T13:48:04;12.30;80.20
20057;DHT22;10189;49.546;7.906;2023-03-09T13:50:36;12.30;82.60
20057;DHT22;10189;49.546;7.906;2023-03-09T13:55:58;12.40;78.90
20057;DHT22;10189;49.546;7.906;2023-03-09T13:58:28;12.40;79.80
20057;DHT22;10189;49.546;7.906;2023-03-09T14:00:58;12.40;79.80
20057;DHT22;10189;49.546;7.906;2023-03-09T14:03:27;12.40;80.90
20057;DHT22;10189;49.546;7.906;2023-03-09T14:06:09;12.40;80.90
20057;DHT22;10189;49.546;7.906;2023-03-09T14:08:46;12.30;79.80
20057;DHT22;10189;49.546;7.906;2023-03-09T14:11:24;12.00;83.40
20057;DHT22;10189;49.546;7.906;2023-03-09T14:13:55;11.70;84.60
20057;DHT22;10189;49.546;7.906;2023-03-09T14:16:27;11.60;85.60
20057;DHT22;10189;49.546;7.906;2023-03-09T14:18:55;11.60;85.80
20057;DHT22;10189;49.546;7.906;2023-03-09T14:23:53;11.70;84.30
20057;DHT22;10189;49.546;7.906;2023-03-09T14:26:38;11.60;83.10
20057;DHT22;10189;49.546;7.906;2023-03-09T14:29:14;11.60;85.10
20057;DHT22;10189;49.546;7.906;2023-03-09T14:35:21;11.60;85.60
20057;DHT22;10189;49.546;7.906;2023-03-09T14:37:53;11.60;83.70
20057;DHT22;10189;49.546;7.906;2023-03-09T14:40:24;11.60;85.50
20057;DHT22;10189;49.546;7.906;2023-03-09T14:42:51;11.70;86.20
20057;DHT22;10189;49.546;7.906;2023-03-09T14:45:24;11.70;83.60
20057;DHT22;10189;49.546;7.906;2023-03-09T14:47:51;11.70;84.20
20057;DHT22;10189;49.546;7.906;2023-03-09T14:50:22;11.90;84.60
20057;DHT22;10189;49.546;7.906;2023-03-09T14:52:50;11.90;84.80
20057;DHT22;10189;49.546;7.906;2023-03-09T14:55:19;12.00;84.90
20057;DHT22;10189;49.546;7.906;2023-03-09T14:57:46;12.00;83.40
20057;DHT22;10189;49.546;7.906;2023-03-09T15:00:18;12.10;84.50
20057;DHT22;10189;49.546;7.906;2023-03-09T15:02:49;12.00;83.00
20057;DHT22;10189;49.546;7.906;2023-03-09T15:05:19;11.90;83.80
20057;DHT22;10189;49.546;7.906;2023-03-09T15:07:47;11.80;84.10
20057;DHT22;10189;49.546;7.906;2023-03-09T15:10:14;11.70;84.20
20057;DHT22;10189;49.546;7.906;2023-03-09T15:12:43;11.70;84.50
20057;DHT22;10189;49.546;7.906;2023-03-09T15:15:22;11.60;84.90
20057;DHT22;10189;49.546;7.906;2023-03-09T15:17:50;11.50;84.80
20057;DHT22;10189;49.546;7.906;2023-03-09T15:20:23;11.50;85.60
20057;DHT22;10189;49.546;7.906;2023-03-09T15:22:50;11.50;84.90
20057;DHT22;10189;49.546;7.906;2023-03-09T15:25:18;11.40;85.10
20057;DHT22;10189;49.546;7.906;2023-03-09T15:27:46;11.40;85.30
20057;DHT22;10189;49.546;7.906;2023-03-09T15:30:15;11.40;85.00
20057;DHT22;10189;49.546;7.906;2023-03-09T15:32:43;11.40;84.80
20057;DHT22;10189;49.546;7.906;2023-03-09T15:35:18;11.40;84.80
20057;DHT22;10189;49.546;7.906;2023-03-09T15:37:45;11.40;85.00
20057;DHT22;10189;49.546;7.906;2023-03-09T15:40:13;11.50;83.70
20057;DHT22;10189;49.546;7.906;2023-03-09T15:42:42;11.50;84.00
20057;DHT22;10189;49.546;7.906;2023-03-09T15:45:11;11.50;83.40
20057;DHT22;10189;49.546;7.906;2023-03-09T15:47:40;11.60;83.10
20057;DHT22;10189;49.546;7.906;2023-03-09T15:50:07;11.60;83.40
20057;DHT22;10189;49.546;7.906;2023-03-09T15:52:36;11.50;83.10
20057;DHT22;10189;49.546;7.906;2023-03-09T15:55:05;11.40;83.30
20057;DHT22;10189;49.546;7.906;2023-03-09T15:57:32;11.30;83.00
20057;DHT22;10189;49.546;7.906;2023-03-09T15:59:58;11.30;83.70
20057;DHT22;10189;49.546;7.906;2023-03-09T16:02:26;11.20;83.30
20057;DHT22;10189;49.546;7.906;2023-03-09T16:04:52;11.20;84.10
20057;DHT22;10189;49.546;7.906;2023-03-09T16:07:18;11.10;83.80
20057;DHT22;10189;49.546;7.906;2023-03-09T16:09:44;11.20;84.00
20057;DHT22;10189;49.546;7.906;2023-03-09T16:12:10;11.20;84.40
20057;DHT22;10189;49.546;7.906;2023-03-09T16:14:36;11.10;84.30
20057;DHT22;10189;49.546;7.906;2023-03-09T16:17:02;11.10;84.20
20057;DHT22;10189;49.546;7.906;2023-03-09T16:19:28;11.20;84.10
20057;DHT22;10189;49.546;7.906;2023-03-09T16:21:55;11.20;83.20
20057;DHT22;10189;49.546;7.906;2023-03-09T16:24:21;11.20;83.60
20057;DHT22;10189;49.546;7.906;2023-03-09T16:26:47;11.30;83.70
20057;DHT22;10189;49.546;7.906;2023-03-09T16:29:13;11.20;82.80
20057;DHT22;10189;49.546;7.906;2023-03-09T16:31:39;11.20;83.60
20057;DHT22;10189;49.546;7.906;2023-03-09T16:34:05;11.10;83.90
20057;DHT22;10189;49.546;7.906;2023-03-09T16:36:31;11.10;83.70
20057;DHT22;10189;49.546;7.906;2023-03-09T16:38:57;11.10;84.10
20057;DHT22;10189;49.546;7.906;2023-03-09T16:41:27;11.10;83.20
20057;DHT22;10189;49.546;7.906;2023-03-09T16:43:53;11.10;83.00
20057;DHT22;10189;49.546;7.906;2023-03-09T16:46:23;11.00;83.30
20057;DHT22;10189;49.546;7.906;2023-03-09T16:48:50;11.00;83.60
20057;DHT22;10189;49.546;7.906;2023-03-09T16:51:18;11.00;83.30
20057;DHT22;10189;49.546;7.906;2023-03-09T16:53:46;10.90;83.90
20057;DHT22;10189;49.546;7.906;2023-03-09T16:56:12;10.90;84.10
20057;DHT22;10189;49.546;7.906;2023-03-09T16:58:39;10.80;84.50
20057;DHT22;10189;49.546;7.906;2023-03-09T17:01:13;10.70;84.70
20057;DHT22;10189;49.546;7.906;2023-03-09T17:03:40;10.70;84.50
20057;DHT22;10189;49.546;7.906;2023-03-09T17:06:15;10.60;84.40
20057;DHT22;10189;49.546;7.906;2023-03-09T17:08:42;10.60;84.20
20057;DHT22;10189;49.546;7.906;2023-03-09T17:11:13;10.50;84.10
20057;DHT22;10189;49.546;7.906;2023-03-09T17:13:46;10.50;83.50
20057;DHT22;10189;49.546;7.906;2023-03-09T17:16:14;10.50;83.10
20057;DHT22;10189;49.546;7.906;2023-03-09T17:18:41;10.40;82.80
20057;DHT22;10189;49.546;7.906;2023-03-09T17:21:08;10.40;81.80
20057;DHT22;10189;49.546;7.906;2023-03-09T17:23:35;10.30;82.50
20057;DHT22;10189;49.546;7.906;2023-03-09T17:26:02;10.30;81.60
20057;DHT22;10189;49.546;7.906;2023-03-09T17:28:31;10.40;81.90
20057;DHT22;10189;49.546;7.906;2023-03-09T17:30:57;10.30;81.10
20057;DHT22;10189;49.546;7.906;2023-03-09T17:33:24;10.20;81.60
20057;DHT22;10189;49.546;7.906;2023-03-09T17:35:51;10.10;81.40
20057;DHT22;10189;49.546;7.906;2023-03-09T17:38:18;10.10;81.70
20057;DHT22;10189;49.546;7.906;2023-03-09T17:40:48;10.10;81.70
20057;DHT22;10189;49.546;7.906;2023-03-09T17:43:16;10.00;82.00